sensor_id;sensor_type;location;lat;lon;timestamp;temperature;humidity
53053;DHT22;38934;52.690;6.184;2023-05-16T00:00:28;9.20;99.90
53053;DHT22;38934;52.690;6.184;2023-05-16T00:03:00;8.80;99.90
53053;DHT22;38934;52.690;6.184;2023-05-16T00:05:36;8.10;99.90
53053;DHT22;38934;52.690;6.184;2023-05-16T00:08:02;8.30;99.90
53053;DHT22;38934;52.690;6.184;2023-05-16T00:10:28;8.30;99.90
53053;DHT22;38934;52.690;6.184;2023-05-16T00:12:56;8.80;99.90
53053;DHT22;38934;52.690;6.184;2023-05-16T00:15:25;8.20;99.90
53053;DHT22;38934;52.690;6.184;2023-05-16T00:17:58;8.20;99.90
53053;DHT22;38934;52.690;6.184;2023-05-16T00:20:25;9.10;99.90
53053;DHT22;38934;52.690;6.184;2023-05-16T00:22:57;8.40;99.90
53053;DHT22;38934;52.690;6.184;2023-05-16T00:25:25;8.20;99.90
53053;DHT22;38934;52.690;6.184;2023-05-16T00:27:51;8.10;99.90
53053;DHT22;38934;52.690;6.184;2023-05-16T00:30:17;7.30;99.90
53053;DHT22;38934;52.690;6.184;2023-05-16T00:32:42;7.40;99.90
53053;DHT22;38934;52.690;6.184;2023-05-16T00:35:08;7.40;99.90
53053;DHT22;38934;52.690;6.184;2023-05-16T00:37:36;7.80;99.90
53053;DHT22;38934;52.690;6.184;2023-05-16T00:40:03;8.10;99.90
53053;DHT22;38934;52.690;6.184;2023-05-16T00:44:59;7.90;99.90
53053;DHT22;38934;52.690;6.184;2023-05-16T00:47:24;8.20;99.90
53053;DHT22;38934;52.690;6.184;2023-05-16T00:49:52;7.90;99.90
53053;DHT22;38934;52.690;6.184;2023-05-16T00:52:21;7.80;99.90
53053;DHT22;38934;52.690;6.184;2023-05-16T00:54:47;7.80;99.90
53053;DHT22;38934;52.690;6.184;2023-05-16T00:57:13;7.80;99.90
53053;DHT22;38934;52.690;6.184;2023-05-16T00:59:39;7.40;99.90
53053;DHT22;38934;52.690;6.184;2023-05-16T01:02:10;8.70;99.90
53053;DHT22;38934;52.690;6.184;2023-05-16T01:04:38;8.20;99.90
53053;DHT22;38934;52.690;6.184;2023-05-16T01:07:04;7.40;99.90
53053;DHT22;38934;52.690;6.184;2023-05-16T01:09:34;8.20;99.90
53053;DHT22;38934;52.690;6.184;2023-05-16T01:15:14;7.50;99.90
53053;DHT22;38934;52.690;6.184;2023-05-16T01:18:04;7.20;99.90
53053;DHT22;38934;52.690;6.184;2023-05-16T01:20:53;7.50;99.90
53053;DHT22;38934;52.690;6.184;2023-05-16T01:23:57;7.40;99.90
53053;DHT22;38934;52.690;6.184;2023-05-16T01:26:26;7.40;99.90
53053;DHT22;38934;52.690;6.184;2023-05-16T01:28:55;7.40;99.90
53053;DHT22;38934;52.690;6.184;2023-05-16T01:31:22;7.40;99.90
53053;DHT22;38934;52.690;6.184;2023-05-16T01:33:48;8.00;99.90
53053;DHT22;38934;52.690;6.184;2023-05-16T01:38:53;7.50;99.90
53053;DHT22;38934;52.690;6.184;2023-05-16T01:41:31;7.40;99.90
53053;DHT22;38934;52.690;6.184;2023-05-16T01:44:16;7.90;99.90
53053;DHT22;38934;52.690;6.184;2023-05-16T01:46:46;7.30;99.90
53053;DHT22;38934;52.690;6.184;2023-05-16T01:49:24;7.50;99.90
53053;DHT22;38934;52.690;6.184;2023-05-16T01:52:00;7.40;99.90
53053;DHT22;38934;52.690;6.184;2023-05-16T01:54:33;7.40;99.90
53053;DHT22;38934;52.690;6.184;2023-05-16T01:57:03;7.30;99.90
53053;DHT22;38934;52.690;6.184;2023-05-16T01:59:29;7.20;99.90
53053;DHT22;38934;52.690;6.184;2023-05-16T02:01:56;7.20;99.90
53053;DHT22;38934;52.690;6.184;2023-05-16T02:04:22;7.00;99.90
53053;DHT22;38934;52.690;6.184;2023-05-16T02:06:50;7.20;99.90
53053;DHT22;38934;52.690;6.184;2023-05-16T02:09:18;7.10;99.90
53053;DHT22;38934;52.690;6.184;2023-05-16T02:11:44;7.20;99.90
53053;DHT22;38934;52.690;6.184;2023-05-16T02:14:11;8.10;99.90
53053;DHT22;38934;52.690;6.184;2023-05-16T02:16:37;7.00;99.90
53053;DHT22;38934;52.690;6.184;2023-05-16T02:19:03;7.60;99.90
53053;DHT22;38934;52.690;6.184;2023-05-16T02:21:31;7.00;99.90
53053;DHT22;38934;52.690;6.184;2023-05-16T02:24:00;7.20;99.90
53053;DHT22;38934;52.690;6.184;2023-05-16T02:26:28;7.30;99.90
53053;DHT22;38934;52.690;6.184;2023-05-16T02:28:54;7.10;99.90
53053;DHT22;38934;52.690;6.184;2023-05-16T02:31:30;8.00;99.90
53053;DHT22;38934;52.690;6.184;2023-05-16T02:34:02;7.10;99.90
53053;DHT22;38934;52.690;6.184;2023-05-16T02:36:28;7.10;99.90
53053;DHT22;38934;52.690;6.184;2023-05-16T02:38:54;6.80;99.90
53053;DHT22;38934;52.690;6.184;2023-05-16T02:43:48;7.10;99.90
53053;DHT22;38934;52.690;6.184;2023-05-16T02:46:24;6.80;99.90
53053;DHT22;38934;52.690;6.184;2023-05-16T02:48:53;7.00;99.90
53053;DHT22;38934;52.690;6.184;2023-05-16T02:51:23;6.80;99.90
53053;DHT22;38934;52.690;6.184;2023-05-16T02:53:53;7.70;99.90
53053;DHT22;38934;52.690;6.184;2023-05-16T02:56:19;7.90;99.90
53053;DHT22;38934;52.690;6.184;2023-05-16T02:58:47;8.30;99.90
53053;DHT22;38934;52.690;6.184;2023-05-16T03:01:14;7.50;99.90
53053;DHT22;38934;52.690;6.184;2023-05-16T03:03:43;7.90;99.90
53053;DHT22;38934;52.690;6.184;2023-05-16T03:08:35;7.20;99.90
53053;DHT22;38934;52.690;6.184;2023-05-16T03:11:04;7.50;99.90
53053;DHT22;38934;52.690;6.184;2023-05-16T03:13:29;7.20;99.90
53053;DHT22;38934;52.690;6.184;2023-05-16T03:15:55;7.90;99.90
53053;DHT22;38934;52.690;6.184;2023-05-16T03:18:23;8.00;99.90
53053;DHT22;38934;52.690;6.184;2023-05-16T03:20:49;7.10;99.90
53053;DHT22;38934;52.690;6.184;2023-05-16T03:23:22;6.60;99.90
53053;DHT22;38934;52.690;6.184;2023-05-16T03:26:08;7.20;99.90
53053;DHT22;38934;52.690;6.184;2023-05-16T03:28:47;7.40;99.90
53053;DHT22;38934;52.690;6.184;2023-05-16T03:34:53;6.70;99.90
53053;DHT22;38934;52.690;6.184;2023-05-16T03:40:16;6.90;99.90
53053;DHT22;38934;52.690;6.184;2023-05-16T03:49:49;7.30;99.90
53053;DHT22;38934;52.690;6.184;2023-05-16T03:52:15;6.90;99.90
53053;DHT22;38934;52.690;6.184;2023-05-16T03:55:46;7.00;99.90
53053;DHT22;38934;52.690;6.184;2023-05-16T03:58:19;7.10;99.90
53053;DHT22;38934;52.690;6.184;2023-05-16T04:04:15;6.70;99.90
53053;DHT22;38934;52.690;6.184;2023-05-16T04:07:16;7.00;99.90
53053;DHT22;38934;52.690;6.184;2023-05-16T04:10:11;7.60;99.90
53053;DHT22;38934;52.690;6.184;2023-05-16T04:12:37;6.90;99.90
53053;DHT22;38934;52.690;6.184;2023-05-16T04:15:06;7.30;99.90
53053;DHT22;38934;52.690;6.184;2023-05-16T04:17:34;6.60;99.90
53053;DHT22;38934;52.690;6.184;2023-05-16T04:20:02;7.20;99.90
53053;DHT22;38934;52.690;6.184;2023-05-16T04:22:37;7.10;99.90
53053;DHT22;38934;52.690;6.184;2023-05-16T04:25:07;7.10;99.90
53053;DHT22;38934;52.690;6.184;2023-05-16T04:30:02;7.10;99.90
53053;DHT22;38934;52.690;6.184;2023-05-16T04:32:27;7.10;99.90
53053;DHT22;38934;52.690;6.184;2023-05-16T04:34:56;7.40;99.90
53053;DHT22;38934;52.690;6.184;2023-05-16T04:37:24;7.20;99.90
53053;DHT22;38934;52.690;6.184;2023-05-16T04:39:53;8.30;99.90
53053;DHT22;38934;52.690;6.184;2023-05-16T04:42:21;6.60;99.90
53053;DHT22;38934;52.690;6.184;2023-05-16T04:44:47;7.10;99.90
53053;DHT22;38934;52.690;6.184;2023-05-16T04:47:15;6.80;99.90
53053;DHT22;38934;52.690;6.184;2023-05-16T04:49:48;7.20;99.90
53053;DHT22;38934;52.690;6.184;2023-05-16T04:52:14;8.10;99.90
53053;DHT22;38934;52.690;6.184;2023-05-16T05:00:21;7.50;99.90
53053;DHT22;38934;52.690;6.184;2023-05-16T05:02:47;7.60;99.90
53053;DHT22;38934;52.690;6.184;2023-05-16T05:05:40;7.10;99.90
53053;DHT22;38934;52.690;6.184;2023-05-16T05:08:17;7.90;99.90
53053;DHT22;38934;52.690;6.184;2023-05-16T05:10:49;8.40;99.90
53053;DHT22;38934;52.690;6.184;2023-05-16T05:13:14;8.00;99.90
53053;DHT22;38934;52.690;6.184;2023-05-16T05:15:43;8.50;99.90
53053;DHT22;38934;52.690;6.184;2023-05-16T05:18:11;8.00;99.90
53053;DHT22;38934;52.690;6.184;2023-05-16T05:20:39;9.10;99.90
53053;DHT22;38934;52.690;6.184;2023-05-16T05:23:27;9.00;99.90
53053;DHT22;38934;52.690;6.184;2023-05-16T05:26:32;7.80;99.90
53053;DHT22;38934;52.690;6.184;2023-05-16T05:29:18;8.90;99.90
53053;DHT22;38934;52.690;6.184;2023-05-16T05:31:46;9.50;99.90
53053;DHT22;38934;52.690;6.184;2023-05-16T05:34:15;8.50;99.90
53053;DHT22;38934;52.690;6.184;2023-05-16T05:36:47;9.30;99.90
53053;DHT22;38934;52.690;6.184;2023-05-16T05:39:15;8.70;99.90
53053;DHT22;38934;52.690;6.184;2023-05-16T05:41:46;8.60;99.90
53053;DHT22;38934;52.690;6.184;2023-05-16T05:44:32;8.80;99.90
53053;DHT22;38934;52.690;6.184;2023-05-16T05:47:08;8.80;99.90
53053;DHT22;38934;52.690;6.184;2023-05-16T05:49:34;8.50;99.90
53053;DHT22;38934;52.690;6.184;2023-05-16T05:52:00;9.90;99.90
53053;DHT22;38934;52.690;6.184;2023-05-16T05:54:26;9.10;99.90
53053;DHT22;38934;52.690;6.184;2023-05-16T05:56:52;9.30;99.90
53053;DHT22;38934;52.690;6.184;2023-05-16T05:59:18;9.60;99.90
53053;DHT22;38934;52.690;6.184;2023-05-16T06:01:43;8.80;99.90
53053;DHT22;38934;52.690;6.184;2023-05-16T06:04:09;9.20;99.90
53053;DHT22;38934;52.690;6.184;2023-05-16T06:06:36;9.80;99.90
53053;DHT22;38934;52.690;6.184;2023-05-16T06:09:02;9.40;99.90
53053;DHT22;38934;52.690;6.184;2023-05-16T06:11:34;9.40;99.90
53053;DHT22;38934;52.690;6.184;2023-05-16T06:14:00;9.70;99.90
53053;DHT22;38934;52.690;6.184;2023-05-16T06:16:40;9.40;99.90
53053;DHT22;38934;52.690;6.184;2023-05-16T06:19:06;9.50;99.90
53053;DHT22;38934;52.690;6.184;2023-05-16T06:21:32;10.50;99.90
53053;DHT22;38934;52.690;6.184;2023-05-16T06:23:59;9.70;99.90
53053;DHT22;38934;52.690;6.184;2023-05-16T06:26:25;10.90;99.90
53053;DHT22;38934;52.690;6.184;2023-05-16T06:28:51;10.10;99.90
53053;DHT22;38934;52.690;6.184;2023-05-16T06:31:17;11.00;99.90
53053;DHT22;38934;52.690;6.184;2023-05-16T06:33:42;10.30;99.90
53053;DHT22;38934;52.690;6.184;2023-05-16T06:36:10;10.90;99.90
53053;DHT22;38934;52.690;6.184;2023-05-16T06:38:36;10.80;99.90
53053;DHT22;38934;52.690;6.184;2023-05-16T06:41:01;11.50;99.90
53053;DHT22;38934;52.690;6.184;2023-05-16T06:43:27;11.30;99.90
53053;DHT22;38934;52.690;6.184;2023-05-16T06:45:53;11.30;99.90
53053;DHT22;38934;52.690;6.184;2023-05-16T06:48:19;11.70;99.90
53053;DHT22;38934;52.690;6.184;2023-05-16T06:50:49;12.40;99.90
53053;DHT22;38934;52.690;6.184;2023-05-16T06:53:17;12.50;99.90
53053;DHT22;38934;52.690;6.184;2023-05-16T06:55:43;12.40;99.90
53053;DHT22;38934;52.690;6.184;2023-05-16T06:58:09;12.00;99.90
53053;DHT22;38934;52.690;6.184;2023-05-16T07:00:34;12.10;99.90
53053;DHT22;38934;52.690;6.184;2023-05-16T07:03:01;11.60;99.90
53053;DHT22;38934;52.690;6.184;2023-05-16T07:05:28;11.60;99.90
53053;DHT22;38934;52.690;6.184;2023-05-16T07:07:54;11.50;99.90
53053;DHT22;38934;52.690;6.184;2023-05-16T07:10:20;11.80;99.90
53053;DHT22;38934;52.690;6.184;2023-05-16T07:12:46;10.90;99.90
53053;DHT22;38934;52.690;6.184;2023-05-16T07:15:12;11.00;99.90
53053;DHT22;38934;52.690;6.184;2023-05-16T07:17:37;11.70;99.90
53053;DHT22;38934;52.690;6.184;2023-05-16T07:20:03;11.60;99.90
53053;DHT22;38934;52.690;6.184;2023-05-16T07:22:29;11.20;99.90
53053;DHT22;38934;52.690;6.184;2023-05-16T07:24:55;11.50;99.90
53053;DHT22;38934;52.690;6.184;2023-05-16T07:27:25;11.50;99.90
53053;DHT22;38934;52.690;6.184;2023-05-16T07:29:51;12.10;99.90
53053;DHT22;38934;52.690;6.184;2023-05-16T07:34:43;11.60;99.90
53053;DHT22;38934;52.690;6.184;2023-05-16T07:37:08;12.00;99.90
53053;DHT22;38934;52.690;6.184;2023-05-16T07:39:38;11.80;99.90
53053;DHT22;38934;52.690;6.184;2023-05-16T07:42:06;11.90;99.90
53053;DHT22;38934;52.690;6.184;2023-05-16T07:44:32;12.40;99.90
53053;DHT22;38934;52.690;6.184;2023-05-16T07:46:57;12.90;99.90
53053;DHT22;38934;52.690;6.184;2023-05-16T07:49:23;14.20;99.90
53053;DHT22;38934;52.690;6.184;2023-05-16T07:51:48;13.60;99.90
53053;DHT22;38934;52.690;6.184;2023-05-16T07:54:14;12.70;99.90
53053;DHT22;38934;52.690;6.184;2023-05-16T07:56:40;13.80;99.90
53053;DHT22;38934;52.690;6.184;2023-05-16T07:59:06;13.00;99.90
53053;DHT22;38934;52.690;6.184;2023-05-16T08:01:32;14.00;99.90
53053;DHT22;38934;52.690;6.184;2023-05-16T08:03:58;14.60;99.90
53053;DHT22;38934;52.690;6.184;2023-05-16T08:08:50;16.10;99.90
53053;DHT22;38934;52.690;6.184;2023-05-16T08:11:15;17.10;99.90
53053;DHT22;38934;52.690;6.184;2023-05-16T08:13:41;17.20;99.90
53053;DHT22;38934;52.690;6.184;2023-05-16T08:16:06;17.70;99.90
53053;DHT22;38934;52.690;6.184;2023-05-16T08:18:32;18.00;99.90
53053;DHT22;38934;52.690;6.184;2023-05-16T08:20:58;17.80;99.00
53053;DHT22;38934;52.690;6.184;2023-05-16T08:23:23;17.80;97.70
53053;DHT22;38934;52.690;6.184;2023-05-16T08:25:49;18.00;95.90
53053;DHT22;38934;52.690;6.184;2023-05-16T08:28:15;18.50;94.80
53053;DHT22;38934;52.690;6.184;2023-05-16T08:30:41;18.60;92.50
53053;DHT22;38934;52.690;6.184;2023-05-16T08:33:06;19.60;91.30
53053;DHT22;38934;52.690;6.184;2023-05-16T08:35:32;20.00;85.00
53053;DHT22;38934;52.690;6.184;2023-05-16T08:38:00;19.60;73.80
53053;DHT22;38934;52.690;6.184;2023-05-16T08:40:27;19.30;71.60
53053;DHT22;38934;52.690;6.184;2023-05-16T08:42:53;19.30;75.50
53053;DHT22;38934;52.690;6.184;2023-05-16T08:45:19;17.40;80.10
53053;DHT22;38934;52.690;6.184;2023-05-16T08:47:48;16.20;87.20
53053;DHT22;38934;52.690;6.184;2023-05-16T08:50:15;15.30;92.20
53053;DHT22;38934;52.690;6.184;2023-05-16T08:52:41;15.10;98.10
53053;DHT22;38934;52.690;6.184;2023-05-16T08:55:08;15.70;99.90
53053;DHT22;38934;52.690;6.184;2023-05-16T08:57:34;16.20;99.20
53053;DHT22;38934;52.690;6.184;2023-05-16T09:00:01;16.70;96.00
53053;DHT22;38934;52.690;6.184;2023-05-16T09:02:37;16.20;95.30
53053;DHT22;38934;52.690;6.184;2023-05-16T09:05:03;16.20;94.30
53053;DHT22;38934;52.690;6.184;2023-05-16T09:07:30;16.60;93.10
53053;DHT22;38934;52.690;6.184;2023-05-16T09:12:22;18.00;90.20
53053;DHT22;38934;52.690;6.184;2023-05-16T09:14:47;18.70;90.20
53053;DHT22;38934;52.690;6.184;2023-05-16T09:17:13;19.10;86.10
53053;DHT22;38934;52.690;6.184;2023-05-16T09:19:43;17.90;80.60
53053;DHT22;38934;52.690;6.184;2023-05-16T09:22:11;17.00;81.20
53053;DHT22;38934;52.690;6.184;2023-05-16T09:24:42;17.20;82.90
53053;DHT22;38934;52.690;6.184;2023-05-16T09:27:13;17.20;86.70
53053;DHT22;38934;52.690;6.184;2023-05-16T09:29:42;18.00;85.60
53053;DHT22;38934;52.690;6.184;2023-05-16T09:32:16;18.60;84.20
53053;DHT22;38934;52.690;6.184;2023-05-16T09:34:43;19.00;81.80
53053;DHT22;38934;52.690;6.184;2023-05-16T09:37:11;19.20;83.60
53053;DHT22;38934;52.690;6.184;2023-05-16T09:39:55;19.60;83.70
53053;DHT22;38934;52.690;6.184;2023-05-16T09:42:20;18.40;80.20
53053;DHT22;38934;52.690;6.184;2023-05-16T09:44:52;18.40;81.70
53053;DHT22;38934;52.690;6.184;2023-05-16T09:47:19;17.70;79.70
53053;DHT22;38934;52.690;6.184;2023-05-16T09:49:46;17.20;79.60
53053;DHT22;38934;52.690;6.184;2023-05-16T09:52:16;17.10;80.90
53053;DHT22;38934;52.690;6.184;2023-05-16T09:54:41;17.50;82.80
53053;DHT22;38934;52.690;6.184;2023-05-16T09:57:07;17.20;83.20
53053;DHT22;38934;52.690;6.184;2023-05-16T09:59:40;16.30;85.30
53053;DHT22;38934;52.690;6.184;2023-05-16T10:02:06;17.10;87.90
53053;DHT22;38934;52.690;6.184;2023-05-16T10:04:35;16.00;88.50
53053;DHT22;38934;52.690;6.184;2023-05-16T10:07:02;15.60;89.90
53053;DHT22;38934;52.690;6.184;2023-05-16T10:09:31;15.10;92.90
53053;DHT22;38934;52.690;6.184;2023-05-16T10:12:03;15.20;96.80
53053;DHT22;38934;52.690;6.184;2023-05-16T10:14:33;14.10;99.90
53053;DHT22;38934;52.690;6.184;2023-05-16T10:17:00;14.40;99.90
53053;DHT22;38934;52.690;6.184;2023-05-16T10:19:29;15.70;99.90
53053;DHT22;38934;52.690;6.184;2023-05-16T10:21:57;16.20;99.90
53053;DHT22;38934;52.690;6.184;2023-05-16T10:24:53;16.50;99.70
53053;DHT22;38934;52.690;6.184;2023-05-16T10:27:23;15.90;95.20
53053;DHT22;38934;52.690;6.184;2023-05-16T10:29:50;16.10;95.30
53053;DHT22;38934;52.690;6.184;2023-05-16T10:32:17;16.00;94.90
53053;DHT22;38934;52.690;6.184;2023-05-16T10:34:45;15.70;94.30
53053;DHT22;38934;52.690;6.184;2023-05-16T10:37:10;15.70;93.10
53053;DHT22;38934;52.690;6.184;2023-05-16T10:39:37;16.10;92.20
53053;DHT22;38934;52.690;6.184;2023-05-16T10:42:05;15.90;92.70
53053;DHT22;38934;52.690;6.184;2023-05-16T10:44:33;15.70;93.30
53053;DHT22;38934;52.690;6.184;2023-05-16T10:46:59;16.00;95.10
53053;DHT22;38934;52.690;6.184;2023-05-16T10:49:29;16.20;94.30
53053;DHT22;38934;52.690;6.184;2023-05-16T10:52:16;15.90;93.10
53053;DHT22;38934;52.690;6.184;2023-05-16T10:54:51;14.90;93.70
53053;DHT22;38934;52.690;6.184;2023-05-16T10:57:22;15.30;93.90
53053;DHT22;38934;52.690;6.184;2023-05-16T10:59:50;14.70;95.90
53053;DHT22;38934;52.690;6.184;2023-05-16T11:02:30;15.70;95.40
53053;DHT22;38934;52.690;6.184;2023-05-16T11:04:59;16.20;95.10
53053;DHT22;38934;52.690;6.184;2023-05-16T11:07:31;16.30;95.80
53053;DHT22;38934;52.690;6.184;2023-05-16T11:10:03;15.90;94.40
53053;DHT22;38934;52.690;6.184;2023-05-16T11:12:47;15.90;94.20
53053;DHT22;38934;52.690;6.184;2023-05-16T11:15:27;15.90;93.20
53053;DHT22;38934;52.690;6.184;2023-05-16T11:18:08;16.00;92.60
53053;DHT22;38934;52.690;6.184;2023-05-16T11:20:38;16.80;93.40
53053;DHT22;38934;52.690;6.184;2023-05-16T11:23:18;16.20;93.50
53053;DHT22;38934;52.690;6.184;2023-05-16T11:25:56;16.30;92.50
53053;DHT22;38934;52.690;6.184;2023-05-16T11:28:24;16.90;89.50
53053;DHT22;38934;52.690;6.184;2023-05-16T11:30:56;16.10;87.00
53053;DHT22;38934;52.690;6.184;2023-05-16T11:33:23;15.90;89.50
53053;DHT22;38934;52.690;6.184;2023-05-16T11:36:06;15.10;90.70
53053;DHT22;38934;52.690;6.184;2023-05-16T11:38:32;14.90;91.90
53053;DHT22;38934;52.690;6.184;2023-05-16T11:41:05;14.40;95.90
53053;DHT22;38934;52.690;6.184;2023-05-16T11:43:41;14.10;97.80
53053;DHT22;38934;52.690;6.184;2023-05-16T11:46:14;14.60;99.90
53053;DHT22;38934;52.690;6.184;2023-05-16T11:48:42;13.70;99.90
53053;DHT22;38934;52.690;6.184;2023-05-16T11:51:10;13.90;99.90
53053;DHT22;38934;52.690;6.184;2023-05-16T11:53:36;14.70;99.90
53053;DHT22;38934;52.690;6.184;2023-05-16T11:56:02;14.40;99.90
53053;DHT22;38934;52.690;6.184;2023-05-16T11:58:28;13.80;99.90
53053;DHT22;38934;52.690;6.184;2023-05-16T12:00:54;13.60;99.90
53053;DHT22;38934;52.690;6.184;2023-05-16T12:03:20;14.50;99.90
53053;DHT22;38934;52.690;6.184;2023-05-16T12:05:52;13.90;99.90
53053;DHT22;38934;52.690;6.184;2023-05-16T12:08:19;14.40;99.90
53053;DHT22;38934;52.690;6.184;2023-05-16T12:10:49;13.50;99.90
53053;DHT22;38934;52.690;6.184;2023-05-16T12:13:20;14.20;99.90
53053;DHT22;38934;52.690;6.184;2023-05-16T12:15:46;15.00;99.90
53053;DHT22;38934;52.690;6.184;2023-05-16T12:18:12;14.20;99.90
53053;DHT22;38934;52.690;6.184;2023-05-16T12:20:38;14.90;99.90
53053;DHT22;38934;52.690;6.184;2023-05-16T12:23:06;14.80;99.90
53053;DHT22;38934;52.690;6.184;2023-05-16T12:25:35;14.50;99.90
53053;DHT22;38934;52.690;6.184;2023-05-16T12:28:03;14.40;99.90
53053;DHT22;38934;52.690;6.184;2023-05-16T12:30:30;14.50;99.90
53053;DHT22;38934;52.690;6.184;2023-05-16T12:33:01;14.60;99.90
53053;DHT22;38934;52.690;6.184;2023-05-16T12:35:32;14.50;99.90
53053;DHT22;38934;52.690;6.184;2023-05-16T12:37:59;14.80;99.90
53053;DHT22;38934;52.690;6.184;2023-05-16T12:40:28;14.80;99.90
53053;DHT22;38934;52.690;6.184;2023-05-16T12:42:54;14.80;99.90
53053;DHT22;38934;52.690;6.184;2023-05-16T12:45:27;14.20;99.90
53053;DHT22;38934;52.690;6.184;2023-05-16T12:47:53;15.10;99.90
53053;DHT22;38934;52.690;6.184;2023-05-16T12:50:19;14.50;99.90
53053;DHT22;38934;52.690;6.184;2023-05-16T12:52:52;14.50;99.90
53053;DHT22;38934;52.690;6.184;2023-05-16T12:55:22;15.10;99.90
53053;DHT22;38934;52.690;6.184;2023-05-16T12:57:48;15.00;99.90
53053;DHT22;38934;52.690;6.184;2023-05-16T13:00:16;16.00;99.90
53053;DHT22;38934;52.690;6.184;2023-05-16T13:02:43;15.00;99.90
53053;DHT22;38934;52.690;6.184;2023-05-16T13:07:36;14.80;99.90
53053;DHT22;38934;52.690;6.184;2023-05-16T13:10:05;14.60;99.90
53053;DHT22;38934;52.690;6.184;2023-05-16T13:12:33;14.30;99.90
53053;DHT22;38934;52.690;6.184;2023-05-16T13:14:58;14.50;99.90
53053;DHT22;38934;52.690;6.184;2023-05-16T13:17:24;14.80;99.90
53053;DHT22;38934;52.690;6.184;2023-05-16T13:19:50;14.80;99.90
53053;DHT22;38934;52.690;6.184;2023-05-16T13:22:16;14.10;99.90
53053;DHT22;38934;52.690;6.184;2023-05-16T13:24:42;14.80;99.90
53053;DHT22;38934;52.690;6.184;2023-05-16T13:27:07;14.40;99.90
53053;DHT22;38934;52.690;6.184;2023-05-16T13:29:33;14.40;99.90
53053;DHT22;38934;52.690;6.184;2023-05-16T13:31:59;14.00;99.90
53053;DHT22;38934;52.690;6.184;2023-05-16T13:34:24;14.40;99.90
53053;DHT22;38934;52.690;6.184;2023-05-16T13:36:50;14.80;99.90
53053;DHT22;38934;52.690;6.184;2023-05-16T13:39:16;14.70;99.90
53053;DHT22;38934;52.690;6.184;2023-05-16T13:41:42;14.40;99.90
53053;DHT22;38934;52.690;6.184;2023-05-16T13:44:08;15.00;99.90
53053;DHT22;38934;52.690;6.184;2023-05-16T13:46:34;15.50;99.90
53053;DHT22;38934;52.690;6.184;2023-05-16T13:49:03;15.30;99.90
53053;DHT22;38934;52.690;6.184;2023-05-16T13:51:46;14.80;99.90
53053;DHT22;38934;52.690;6.184;2023-05-16T13:58:26;14.70;99.90
53053;DHT22;38934;52.690;6.184;2023-05-16T14:00:52;14.80;99.90
53053;DHT22;38934;52.690;6.184;2023-05-16T14:03:17;14.60;99.90
53053;DHT22;38934;52.690;6.184;2023-05-16T14:05:43;15.30;99.90
53053;DHT22;38934;52.690;6.184;2023-05-16T14:08:09;14.20;99.90
53053;DHT22;38934;52.690;6.184;2023-05-16T14:10:34;14.50;99.90
53053;DHT22;38934;52.690;6.184;2023-05-16T14:13:00;14.00;99.90
53053;DHT22;38934;52.690;6.184;2023-05-16T14:15:26;13.70;99.90
53053;DHT22;38934;52.690;6.184;2023-05-16T14:17:51;13.70;99.90
53053;DHT22;38934;52.690;6.184;2023-05-16T14:20:17;14.40;99.90
53053;DHT22;38934;52.690;6.184;2023-05-16T14:22:43;14.00;99.90
53053;DHT22;38934;52.690;6.184;2023-05-16T14:25:08;13.30;99.90
53053;DHT22;38934;52.690;6.184;2023-05-16T14:27:34;13.20;99.90
53053;DHT22;38934;52.690;6.184;2023-05-16T14:30:00;13.20;99.90
53053;DHT22;38934;52.690;6.184;2023-05-16T14:32:26;13.30;99.90
53053;DHT22;38934;52.690;6.184;2023-05-16T14:34:51;13.90;99.90
53053;DHT22;38934;52.690;6.184;2023-05-16T14:37:17;14.40;99.90
53053;DHT22;38934;52.690;6.184;2023-05-16T14:39:43;14.20;99.90
53053;DHT22;38934;52.690;6.184;2023-05-16T14:42:11;13.70;99.90
53053;DHT22;38934;52.690;6.184;2023-05-16T14:44:37;13.60;99.90
53053;DHT22;38934;52.690;6.184;2023-05-16T14:47:02;14.00;99.90
53053;DHT22;38934;52.690;6.184;2023-05-16T14:49:28;13.60;99.90
53053;DHT22;38934;52.690;6.184;2023-05-16T14:51:54;14.80;99.90
53053;DHT22;38934;52.690;6.184;2023-05-16T14:54:23;14.20;99.90
53053;DHT22;38934;52.690;6.184;2023-05-16T14:56:49;13.80;99.90
53053;DHT22;38934;52.690;6.184;2023-05-16T14:59:15;14.60;99.90
53053;DHT22;38934;52.690;6.184;2023-05-16T15:01:40;13.90;99.90
53053;DHT22;38934;52.690;6.184;2023-05-16T15:04:06;14.00;99.90
53053;DHT22;38934;52.690;6.184;2023-05-16T15:06:32;14.40;99.90
53053;DHT22;38934;52.690;6.184;2023-05-16T15:08:58;14.40;99.90
53053;DHT22;38934;52.690;6.184;2023-05-16T15:11:23;14.10;99.90
53053;DHT22;38934;52.690;6.184;2023-05-16T15:13:49;13.60;99.90
53053;DHT22;38934;52.690;6.184;2023-05-16T15:16:15;14.70;99.90
53053;DHT22;38934;52.690;6.184;2023-05-16T15:18:41;13.90;99.90
53053;DHT22;38934;52.690;6.184;2023-05-16T15:21:07;14.30;99.90
53053;DHT22;38934;52.690;6.184;2023-05-16T15:23:34;14.70;99.90
53053;DHT22;38934;52.690;6.184;2023-05-16T15:25:59;14.40;99.90
53053;DHT22;38934;52.690;6.184;2023-05-16T15:28:25;13.90;99.90
53053;DHT22;38934;52.690;6.184;2023-05-16T15:30:51;13.90;99.90
53053;DHT22;38934;52.690;6.184;2023-05-16T15:33:16;13.90;99.90
53053;DHT22;38934;52.690;6.184;2023-05-16T15:35:42;13.80;99.90
53053;DHT22;38934;52.690;6.184;2023-05-16T15:38:07;14.00;99.90
53053;DHT22;38934;52.690;6.184;2023-05-16T15:40:33;14.80;99.90
53053;DHT22;38934;52.690;6.184;2023-05-16T15:42:59;14.00;99.90
53053;DHT22;38934;52.690;6.184;2023-05-16T15:45:24;13.80;99.90
53053;DHT22;38934;52.690;6.184;2023-05-16T15:47:50;13.80;99.90
53053;DHT22;38934;52.690;6.184;2023-05-16T15:50:16;13.80;99.90
53053;DHT22;38934;52.690;6.184;2023-05-16T15:52:42;13.90;99.90
53053;DHT22;38934;52.690;6.184;2023-05-16T15:55:08;13.80;99.90
53053;DHT22;38934;52.690;6.184;2023-05-16T15:57:33;13.40;99.90
53053;DHT22;38934;52.690;6.184;2023-05-16T15:59:59;13.40;99.90
53053;DHT22;38934;52.690;6.184;2023-05-16T16:02:25;13.50;99.90
53053;DHT22;38934;52.690;6.184;2023-05-16T16:04:50;12.50;99.90
53053;DHT22;38934;52.690;6.184;2023-05-16T16:07:16;12.40;99.90
53053;DHT22;38934;52.690;6.184;2023-05-16T16:09:42;12.70;99.90
53053;DHT22;38934;52.690;6.184;2023-05-16T16:12:09;12.20;99.90
53053;DHT22;38934;52.690;6.184;2023-05-16T16:14:35;12.40;99.90
53053;DHT22;38934;52.690;6.184;2023-05-16T16:17:01;12.60;99.90
53053;DHT22;38934;52.690;6.184;2023-05-16T16:19:26;12.70;99.90
53053;DHT22;38934;52.690;6.184;2023-05-16T16:22:20;12.80;99.90
53053;DHT22;38934;52.690;6.184;2023-05-16T16:25:11;11.90;99.90
53053;DHT22;38934;52.690;6.184;2023-05-16T16:27:36;11.90;99.90
53053;DHT22;38934;52.690;6.184;2023-05-16T16:30:02;11.60;99.90
53053;DHT22;38934;52.690;6.184;2023-05-16T16:32:28;11.90;99.90
53053;DHT22;38934;52.690;6.184;2023-05-16T16:34:54;12.00;99.90
53053;DHT22;38934;52.690;6.184;2023-05-16T16:37:22;12.30;99.90
53053;DHT22;38934;52.690;6.184;2023-05-16T16:39:48;12.10;99.90